createdAt,value
2023-10-29T00:11:13.424Z,12.4
2023-10-29T02:21:33.277Z,13.4
2023-10-29T02:41:36.168Z,13.4
2023-10-29T05:52:07.814Z,14.1
2023-10-29T06:12:11.268Z,14.1
2023-10-29T06:22:12.804Z,14.3
2023-10-29T06:32:21.434Z,14.1
2023-10-29T06:42:22.794Z,14.1
2023-10-29T06:52:24.583Z,14.1
2023-10-29T07:02:25.950Z,14.3
2023-10-29T07:12:27.602Z,14.3
2023-10-29T07:22:29.535Z,14.3
2023-10-29T07:32:31.408Z,14.2
2023-10-29T07:42:33.348Z,14.1
2023-10-29T07:52:34.599Z,14.1
2023-10-29T08:02:36.182Z,14.3
2023-10-29T08:12:37.678Z,14.7
2023-10-29T08:22:39.374Z,14.4
2023-10-29T08:32:41.288Z,14.3
2023-10-29T08:42:42.575Z,14.3
2023-10-29T08:52:44.147Z,14.2
2023-10-29T09:12:47.705Z,14.4
2023-10-29T09:32:51.847Z,14.5
2023-10-29T09:52:54.821Z,14.5
2023-10-29T10:12:58.194Z,14.5
2023-10-29T10:22:59.845Z,15.5
2023-10-29T10:33:01.817Z,15.9
2023-10-29T10:43:02.860Z,15.9
2023-10-29T10:53:03.961Z,15.2
2023-10-29T11:03:14.196Z,15.1
2023-10-29T11:13:07.107Z,15.2
2023-10-29T12:03:15.654Z,15.6
2023-10-29T12:43:22.395Z,15.1
2023-10-29T12:53:24.466Z,14.9
2023-10-29T13:33:31.024Z,12.7
2023-10-29T13:43:33.064Z,12.4
2023-10-29T13:53:34.693Z,12.5
2023-10-29T14:13:38.378Z,12.6
2023-10-29T14:23:40.036Z,12.8
2023-10-29T14:33:41.313Z,12.8
2023-10-29T14:43:43.274Z,12.9
2023-10-29T14:53:45.210Z,13.2
2023-10-29T15:13:48.566Z,13.4
2023-10-29T15:23:50.257Z,13.8
2023-10-29T15:33:51.336Z,13.9
2023-10-29T15:53:55.033Z,14.1
2023-10-29T16:13:58.092Z,14.1
2023-10-29T16:23:59.716Z,14.3
2023-10-29T16:34:01.838Z,14.2
2023-10-29T16:54:04.834Z,14
2023-10-29T17:04:06.050Z,13.9
2023-10-29T17:24:09.144Z,13.7
2023-10-29T17:34:10.321Z,13.6
2023-10-29T17:54:13.548Z,13.4
2023-10-29T18:04:15.225Z,13.3
2023-10-29T18:14:16.434Z,13.3
2023-10-29T18:24:18.221Z,13.4
2023-10-29T18:54:23.796Z,13.4
2023-10-29T19:04:25.286Z,13.2
2023-10-29T19:14:26.678Z,13.3
2023-10-29T19:24:28.484Z,13.4
2023-10-29T19:34:29.905Z,13.4
2023-10-29T19:44:31.464Z,13.4
2023-10-29T19:54:33.153Z,13.5
2023-10-29T20:04:34.345Z,13.4
2023-10-29T20:14:36.030Z,13.5
2023-10-29T20:24:37.645Z,13.5
2023-10-29T20:34:39.491Z,13.4
2023-10-29T20:44:41.456Z,13.2
2023-10-29T20:54:43.256Z,13.2
2023-10-29T21:04:44.564Z,13
2023-10-29T21:14:46.255Z,13
2023-10-29T21:34:48.994Z,12.8
2023-10-29T21:44:50.280Z,12.7
2023-10-29T21:54:51.487Z,12.6
2023-10-29T22:04:53.403Z,12.5
2023-10-29T22:14:54.786Z,12.5
2023-10-29T22:24:55.914Z,12.4
2023-10-29T22:34:57.837Z,12.4
2023-10-29T22:44:59.402Z,12.4
2023-10-29T22:55:01.316Z,12.4
2023-10-29T23:05:03.371Z,12.3
2023-10-29T23:15:05.351Z,12.4
2023-10-29T23:25:07.068Z,12.3
2023-10-29T23:35:08.802Z,12.4
2023-10-29T23:45:10.638Z,12.3
2023-10-29T23:55:12.299Z,12.2
